Hernani, Spain
Current Conditions -  °F | °C
As of 5:30 PM on Friday 24 Oct 2014 (Local Time) from LESO Reporting Station
Clear Clear  
Wind Chill: 75°   Ceiling: Unl
Heat Index: 75°   Visibility: 6mi
Dew Point: 46°   Wind: 1mph
Humidity: 36%   Direction: NA
Pressure: 30.06"   Gusts: NA
Location:  43.27°N, 1.98°W
Report Text: LESO 241530Z VRB01KT CAVOK 24/08 Q1018
Loading
Personal Weather Stations






























Interactive Weather Map
Tropical Storm Tracking
New forecast layout! Learn more

10-Day Weather Forecast

Advertisements
Track Severe Weather on mobile